Time;durP1;ratioP1;P1;durP2;ratioP2;P2;SDS_P1;SDS_P2;PMS_P1;PMS_P2;Temp;Humidity;BMP_temperature;BMP_pressure;BME280_temperature;BME280_humidity;BME280_pressure;Samples;Min_cycle;Max_cycle;Signal;HPM_P1;HPM_P2
2021/08/19 00:02:12;;;;;;;14.25;6.32;;;17.60;99.90;;;;;;5020934;28;20112;-61
2021/08/19 00:04:38;;;;;;;13.05;7.47;;;17.60;99.90;;;;;;5022174;28;20021;-62
2021/08/19 00:07:03;;;;;;;19.05;7.03;;;17.60;99.90;;;;;;5024006;28;20135;-59
2021/08/19 00:09:29;;;;;;;10.13;6.15;;;17.60;99.90;;;;;;5022458;28;20029;-61
2021/08/19 00:11:55;;;;;;;13.80;6.80;;;17.60;99.90;;;;;;5021517;28;20048;-61
2021/08/19 00:14:20;;;;;;;11.98;7.68;;;17.60;99.90;;;;;;5023979;28;20022;-61
2021/08/19 00:16:46;;;;;;;12.20;6.80;;;17.60;99.90;;;;;;5025064;28;20037;-61
2021/08/19 00:19:11;;;;;;;12.73;6.50;;;17.70;99.90;;;;;;5019371;28;20417;-62
2021/08/19 00:21:37;;;;;;;10.30;6.60;;;17.60;99.90;;;;;;5029365;28;20033;-60
2021/08/19 00:24:03;;;;;;;9.68;6.55;;;17.70;99.90;;;;;;5027500;28;20485;-62
2021/08/19 00:26:28;;;;;;;12.95;6.68;;;17.70;99.90;;;;;;5054140;23;20030;-60
2021/08/19 00:28:54;;;;;;;10.90;6.78;;;17.70;99.90;;;;;;5044928;28;20036;-59
2021/08/19 00:31:22;;;;;;;11.50;6.40;;;17.70;99.90;;;;;;5045856;28;20083;-59
2021/08/19 00:33:49;;;;;;;9.50;6.95;;;17.70;99.90;;;;;;5048719;28;20037;-59
2021/08/19 00:36:14;;;;;;;15.43;7.75;;;17.70;99.90;;;;;;5041811;28;20025;-60
2021/08/19 00:38:40;;;;;;;18.98;7.97;;;17.70;99.90;;;;;;5032981;28;20036;-60
2021/08/19 00:41:05;;;;;;;16.88;7.90;;;17.70;99.90;;;;;;5028652;28;20033;-60
2021/08/19 00:43:34;;;;;;;13.02;7.60;;;17.70;99.90;;;;;;5031396;28;20123;-60
2021/08/19 00:46:00;;;;;;;9.95;6.85;;;17.70;99.90;;;;;;5030259;28;20033;-60
2021/08/19 00:48:25;;;;;;;14.30;7.85;;;17.70;99.90;;;;;;5029302;28;20574;-60
2021/08/19 00:50:51;;;;;;;12.00;6.95;;;17.70;99.90;;;;;;5025535;28;20037;-60
2021/08/19 00:53:18;;;;;;;11.40;7.40;;;17.80;99.90;;;;;;5033257;28;20160;-60
2021/08/19 00:55:43;;;;;;;14.45;8.02;;;17.80;99.90;;;;;;5029654;28;20044;-60
2021/08/19 00:58:11;;;;;;;12.52;7.75;;;17.80;99.90;;;;;;5031325;28;20025;-60
2021/08/19 01:00:41;;;;;;;13.63;8.27;;;17.80;99.90;;;;;;5025605;28;20062;-60
2021/08/19 01:03:08;;;;;;;11.35;7.28;;;17.80;99.90;;;;;;5030204;28;20427;-60
2021/08/19 01:05:37;;;;;;;18.52;8.90;;;17.80;99.90;;;;;;5025643;28;20030;-59
2021/08/19 01:08:04;;;;;;;11.45;7.82;;;17.80;99.90;;;;;;5032651;28;20037;-59
2021/08/19 01:10:30;;;;;;;11.18;7.53;;;17.80;99.90;;;;;;5025578;28;20040;-60
2021/08/19 01:12:56;;;;;;;11.48;8.20;;;17.80;99.90;;;;;;5027418;28;20044;-61
2021/08/19 01:15:22;;;;;;;12.30;8.85;;;17.80;99.90;;;;;;5031444;28;20770;-61
2021/08/19 01:17:59;;;;;;;12.73;8.73;;;17.70;99.90;;;;;;5030867;28;20116;-60
2021/08/19 01:20:30;;;;;;;17.00;8.95;;;17.70;99.90;;;;;;5023151;28;20021;-60
2021/08/19 01:22:57;;;;;;;13.38;8.93;;;17.70;99.90;;;;;;5031528;28;20651;-60
2021/08/19 01:25:22;;;;;;;12.82;8.52;;;17.70;99.90;;;;;;5029392;28;20032;-59
2021/08/19 01:27:48;;;;;;;13.07;8.88;;;17.70;99.90;;;;;;5030318;28;20037;-60
2021/08/19 01:30:14;;;;;;;16.20;9.75;;;17.70;99.90;;;;;;5024350;28;20120;-58
2021/08/19 01:32:40;;;;;;;17.23;9.70;;;17.70;99.90;;;;;;5028705;28;20112;-60
2021/08/19 01:35:05;;;;;;;16.63;8.77;;;17.70;99.90;;;;;;5029220;28;20444;-59
2021/08/19 01:37:31;;;;;;;15.23;9.45;;;17.70;99.90;;;;;;5028034;28;20393;-59
2021/08/19 01:39:56;;;;;;;13.02;9.02;;;17.70;99.90;;;;;;5028524;28;20031;-60
2021/08/19 01:42:22;;;;;;;18.10;8.95;;;17.70;99.90;;;;;;5029312;28;20036;-59
2021/08/19 01:44:47;;;;;;;13.30;8.60;;;17.80;99.90;;;;;;5029130;28;20040;-58
2021/08/19 01:47:14;;;;;;;17.80;10.10;;;17.70;99.90;;;;;;5027744;28;20049;-60
2021/08/19 01:49:41;;;;;;;22.80;10.15;;;17.70;99.90;;;;;;5030802;28;20041;-59
2021/08/19 01:52:08;;;;;;;14.25;9.05;;;17.70;99.90;;;;;;5026258;28;20033;-60
2021/08/19 01:54:34;;;;;;;16.58;8.73;;;17.70;99.90;;;;;;5028856;28;20031;-60
2021/08/19 01:56:59;;;;;;;14.50;9.60;;;17.70;99.90;;;;;;5028869;28;20038;-59
2021/08/19 01:59:27;;;;;;;16.73;9.93;;;17.70;99.90;;;;;;5030809;28;20053;-59
2021/08/19 02:01:53;;;;;;;14.80;9.95;;;17.70;99.90;;;;;;5024857;28;20025;-60
2021/08/19 02:04:18;;;;;;;15.00;8.63;;;17.70;99.90;;;;;;5030252;28;20573;-60
2021/08/19 02:06:44;;;;;;;17.58;10.02;;;17.70;99.90;;;;;;5029130;28;20030;-60
2021/08/19 02:09:09;;;;;;;15.80;9.40;;;17.70;99.90;;;;;;5027627;28;20037;-61
2021/08/19 02:11:35;;;;;;;13.77;9.40;;;17.70;99.90;;;;;;5027820;28;20040;-58
2021/08/19 02:14:00;;;;;;;16.73;9.88;;;17.70;99.90;;;;;;5027326;28;20025;-60
2021/08/19 02:16:26;;;;;;;25.02;10.20;;;17.70;99.90;;;;;;5027927;28;20112;-60
2021/08/19 02:18:51;;;;;;;23.35;9.73;;;17.70;99.90;;;;;;5031461;28;20057;-60
2021/08/19 02:21:17;;;;;;;19.55;9.82;;;17.70;99.90;;;;;;5027840;28;20018;-60
2021/08/19 02:23:42;;;;;;;13.85;9.07;;;17.70;99.90;;;;;;5031798;28;20033;-59
2021/08/19 02:26:08;;;;;;;18.63;9.70;;;17.70;99.90;;;;;;5026901;28;20030;-60
2021/08/19 02:28:34;;;;;;;14.23;9.45;;;17.70;99.90;;;;;;5022426;28;20033;-59
2021/08/19 02:30:59;;;;;;;17.58;9.75;;;17.70;99.90;;;;;;5024782;28;20392;-59
2021/08/19 02:33:25;;;;;;;13.80;8.07;;;17.70;99.90;;;;;;5027420;28;20025;-60
2021/08/19 02:35:50;;;;;;;14.05;8.65;;;17.70;99.90;;;;;;5028759;28;20029;-59
2021/08/19 02:38:16;;;;;;;16.63;9.95;;;17.70;99.90;;;;;;5028598;28;20033;-59
2021/08/19 02:40:41;;;;;;;14.18;8.75;;;17.70;99.90;;;;;;5027765;28;20061;-59
2021/08/19 02:43:08;;;;;;;17.02;8.50;;;17.70;99.90;;;;;;5029668;28;20033;-59
2021/08/19 02:45:34;;;;;;;15.60;8.40;;;17.70;99.90;;;;;;5026728;28;20034;-60
2021/08/19 02:48:01;;;;;;;13.98;8.77;;;17.70;99.90;;;;;;5026576;28;20041;-61
2021/08/19 02:50:27;;;;;;;16.55;8.25;;;17.70;99.90;;;;;;5027881;28;20037;-60
2021/08/19 02:52:53;;;;;;;17.70;9.00;;;17.70;99.90;;;;;;5029832;28;20040;-59
2021/08/19 02:55:18;;;;;;;15.90;8.73;;;17.70;99.90;;;;;;5029497;28;20026;-60
2021/08/19 02:57:44;;;;;;;18.98;8.80;;;17.70;99.90;;;;;;5027618;28;20025;-59
2021/08/19 03:00:10;;;;;;;15.25;8.68;;;17.70;99.90;;;;;;5029659;28;20029;-60
2021/08/19 03:02:36;;;;;;;17.25;9.77;;;17.70;99.90;;;;;;5027356;28;20022;-59
2021/08/19 03:05:02;;;;;;;18.58;9.07;;;17.70;99.90;;;;;;5028583;28;20036;-60
2021/08/19 03:07:29;;;;;;;13.90;8.45;;;17.70;99.90;;;;;;5026443;28;20029;-59
2021/08/19 03:09:54;;;;;;;15.05;8.60;;;17.70;99.90;;;;;;5027655;28;20044;-60
2021/08/19 03:12:20;;;;;;;15.57;9.13;;;17.70;99.90;;;;;;5028003;28;20424;-60
2021/08/19 03:14:45;;;;;;;15.55;8.50;;;17.70;99.90;;;;;;5029956;28;20073;-59
2021/08/19 03:17:11;;;;;;;14.48;9.32;;;17.70;99.90;;;;;;5027575;28;20385;-58
2021/08/19 03:19:37;;;;;;;15.80;9.68;;;17.70;99.90;;;;;;5028127;28;20104;-59
2021/08/19 03:22:04;;;;;;;18.25;8.65;;;17.70;99.90;;;;;;5029082;28;20030;-59
2021/08/19 03:24:30;;;;;;;15.55;9.85;;;17.70;99.90;;;;;;5028293;28;20028;-59
2021/08/19 03:26:57;;;;;;;15.60;9.38;;;17.60;99.90;;;;;;5026911;28;20091;-60
2021/08/19 03:29:23;;;;;;;17.17;9.73;;;17.60;99.90;;;;;;5027908;28;20108;-60
2021/08/19 03:31:49;;;;;;;16.83;9.90;;;17.50;99.90;;;;;;5023641;28;20038;-60
2021/08/19 03:34:15;;;;;;;16.25;9.95;;;17.50;99.90;;;;;;5027964;28;20033;-62
2021/08/19 03:36:40;;;;;;;18.20;11.23;;;17.50;99.90;;;;;;5027328;28;20061;-60
2021/08/19 03:39:06;;;;;;;19.15;9.80;;;17.50;99.90;;;;;;5030345;28;20034;-60
2021/08/19 03:41:32;;;;;;;16.40;10.43;;;17.50;99.90;;;;;;5023897;28;20022;-61
2021/08/19 03:43:58;;;;;;;15.65;10.13;;;17.50;99.90;;;;;;5030216;28;20033;-60
2021/08/19 03:46:24;;;;;;;20.17;11.38;;;17.40;99.90;;;;;;5027472;28;20052;-60
2021/08/19 03:48:50;;;;;;;23.23;11.43;;;17.40;99.90;;;;;;5029475;28;20033;-61
2021/08/19 03:51:15;;;;;;;23.85;10.60;;;17.30;99.90;;;;;;5025641;28;20033;-62
2021/08/19 03:53:41;;;;;;;18.88;11.68;;;17.40;99.90;;;;;;5024202;28;20556;-61
2021/08/19 03:56:07;;;;;;;16.63;10.88;;;17.40;99.90;;;;;;5025079;28;20120;-60
2021/08/19 03:58:33;;;;;;;19.98;11.07;;;17.30;99.90;;;;;;5027698;28;20024;-61
2021/08/19 04:01:01;;;;;;;20.02;11.82;;;17.30;99.90;;;;;;5025439;28;20021;-61
2021/08/19 04:03:26;;;;;;;19.90;12.23;;;17.30;99.90;;;;;;5029191;28;20042;-60
2021/08/19 04:05:52;;;;;;;18.95;11.82;;;17.30;99.90;;;;;;5027176;28;20116;-60
2021/08/19 04:08:18;;;;;;;23.20;11.20;;;17.30;99.90;;;;;;5028524;28;20825;-61
2021/08/19 04:10:43;;;;;;;18.23;10.85;;;17.30;99.90;;;;;;5023495;28;20671;-61
2021/08/19 04:13:09;;;;;;;22.33;11.35;;;17.30;99.90;;;;;;5026634;28;20033;-61
2021/08/19 04:15:34;;;;;;;18.33;10.65;;;17.30;99.90;;;;;;5025095;28;20033;-60
2021/08/19 04:18:00;;;;;;;15.65;10.43;;;17.40;99.90;;;;;;5020343;28;20094;-60
2021/08/19 04:20:26;;;;;;;20.42;10.40;;;17.40;99.90;;;;;;5020145;28;20117;-61
2021/08/19 04:22:51;;;;;;;20.05;10.93;;;17.40;99.90;;;;;;5020924;28;20049;-61
2021/08/19 04:25:17;;;;;;;19.23;9.38;;;17.30;99.90;;;;;;5022474;28;20042;-61
2021/08/19 04:27:42;;;;;;;20.80;10.50;;;17.40;99.90;;;;;;5023037;28;20041;-61
2021/08/19 04:30:09;;;;;;;20.52;10.35;;;17.40;99.90;;;;;;5020497;28;20075;-61
2021/08/19 04:32:35;;;;;;;18.20;9.68;;;17.40;99.90;;;;;;5022494;28;20429;-61
2021/08/19 04:35:01;;;;;;;20.33;9.90;;;17.40;99.90;;;;;;5028929;28;20110;-61
2021/08/19 04:37:26;;;;;;;22.52;9.80;;;17.40;99.90;;;;;;5027402;28;20996;-60
2021/08/19 04:39:52;;;;;;;20.08;9.32;;;17.40;99.90;;;;;;5023358;28;20821;-60
2021/08/19 04:42:18;;;;;;;19.05;10.10;;;17.50;99.90;;;;;;5020441;28;20087;-59
2021/08/19 04:44:44;;;;;;;18.48;9.75;;;17.40;99.90;;;;;;5020727;28;20058;-61
2021/08/19 04:47:09;;;;;;;14.93;8.15;;;17.40;99.90;;;;;;5020673;28;20021;-61
2021/08/19 04:49:35;;;;;;;16.83;9.10;;;17.40;99.90;;;;;;5019985;28;20899;-60
2021/08/19 04:52:00;;;;;;;17.58;8.65;;;17.40;99.90;;;;;;5018979;28;20022;-61
2021/08/19 04:54:26;;;;;;;19.27;9.32;;;17.40;99.90;;;;;;5022206;28;20373;-61
2021/08/19 04:56:52;;;;;;;21.10;8.38;;;17.40;99.90;;;;;;5020296;28;20038;-56
2021/08/19 04:59:17;;;;;;;13.63;7.65;;;17.50;99.90;;;;;;5026165;28;20021;-55
2021/08/19 05:01:43;;;;;;;14.98;7.53;;;17.40;99.90;;;;;;5026507;28;20026;-56
2021/08/19 05:04:09;;;;;;;14.38;7.18;;;17.50;99.90;;;;;;5020338;28;20064;-58
2021/08/19 05:06:35;;;;;;;15.00;7.63;;;17.40;99.90;;;;;;5019586;28;20183;-56
2021/08/19 05:09:04;;;;;;;10.35;6.95;;;17.50;99.90;;;;;;5022624;28;20033;-58
2021/08/19 05:11:29;;;;;;;11.95;7.63;;;17.40;99.90;;;;;;5017714;28;20030;-58
2021/08/19 05:13:58;;;;;;;17.70;9.15;;;17.50;99.90;;;;;;5026511;28;20443;-59
2021/08/19 05:16:24;;;;;;;21.15;8.95;;;17.40;99.90;;;;;;5029307;28;20501;-54
2021/08/19 05:18:49;;;;;;;12.10;8.52;;;17.40;99.90;;;;;;5027372;28;20037;-58
2021/08/19 05:21:15;;;;;;;13.65;8.80;;;17.40;99.90;;;;;;5031063;28;20440;-56
2021/08/19 05:23:41;;;;;;;12.95;8.10;;;17.50;99.90;;;;;;5028813;28;20485;-54
2021/08/19 05:26:07;;;;;;;14.85;8.73;;;17.50;99.90;;;;;;5031674;28;20413;-56
2021/08/19 05:28:33;;;;;;;16.13;8.98;;;17.40;99.90;;;;;;5031267;28;20037;-55
2021/08/19 05:30:58;;;;;;;19.92;8.57;;;17.50;99.90;;;;;;5027526;28;20047;-57
2021/08/19 05:33:24;;;;;;;13.07;7.82;;;17.50;99.90;;;;;;5030954;28;20029;-57
2021/08/19 05:35:50;;;;;;;15.98;8.23;;;17.50;99.90;;;;;;5028477;28;20052;-56
2021/08/19 05:38:15;;;;;;;13.68;8.05;;;17.50;99.90;;;;;;5031953;28;20032;-60
2021/08/19 05:40:41;;;;;;;17.10;7.78;;;17.50;99.90;;;;;;5026311;28;20103;-58
2021/08/19 05:43:06;;;;;;;11.18;7.90;;;17.60;99.90;;;;;;5029874;28;20536;-60
2021/08/19 05:45:35;;;;;;;15.65;7.60;;;17.60;99.90;;;;;;5030032;28;20107;-55
2021/08/19 05:48:01;;;;;;;14.27;7.53;;;17.60;99.90;;;;;;5028668;28;20032;-57
2021/08/19 05:50:28;;;;;;;13.32;7.45;;;17.60;99.90;;;;;;5029991;28;20039;-59
2021/08/19 05:52:53;;;;;;;18.35;9.05;;;17.60;99.90;;;;;;5022092;28;20034;-58
2021/08/19 05:55:19;;;;;;;13.15;8.35;;;17.60;99.90;;;;;;5029811;28;20397;-58
2021/08/19 05:57:47;;;;;;;13.57;8.88;;;17.60;99.90;;;;;;5029393;28;20099;-59
2021/08/19 06:00:13;;;;;;;17.13;9.55;;;17.60;99.90;;;;;;5029511;28;20021;-57
2021/08/19 06:02:39;;;;;;;14.75;8.35;;;17.70;99.90;;;;;;5031140;28;20550;-57
2021/08/19 06:05:05;;;;;;;17.55;9.07;;;17.70;99.90;;;;;;5030057;28;20030;-58
2021/08/19 06:07:31;;;;;;;15.75;9.15;;;17.70;99.90;;;;;;5030363;28;20087;-58
2021/08/19 06:09:56;;;;;;;14.73;9.13;;;17.70;99.90;;;;;;5031471;28;20033;-57
2021/08/19 06:12:22;;;;;;;13.13;8.27;;;17.80;99.90;;;;;;5025765;28;20051;-60
2021/08/19 06:14:47;;;;;;;23.50;9.50;;;17.70;99.90;;;;;;5031710;28;20033;-58
2021/08/19 06:17:13;;;;;;;12.25;8.07;;;17.80;99.90;;;;;;5030392;28;20075;-57
2021/08/19 06:19:38;;;;;;;17.48;8.05;;;17.70;99.90;;;;;;5032025;28;20100;-58
2021/08/19 06:22:05;;;;;;;15.75;8.40;;;17.70;99.90;;;;;;5029310;28;20108;-59
2021/08/19 06:24:30;;;;;;;21.85;9.38;;;17.70;99.90;;;;;;5029103;28;20104;-58
2021/08/19 06:26:56;;;;;;;18.10;10.18;;;17.70;99.90;;;;;;5031084;28;20167;-60
2021/08/19 06:29:21;;;;;;;16.17;8.82;;;17.70;99.90;;;;;;5069619;23;20044;-63
2021/08/19 06:31:47;;;;;;;27.65;9.85;;;17.70;99.90;;;;;;5049800;28;20025;-62
2021/08/19 06:34:12;;;;;;;23.48;10.45;;;17.70;99.90;;;;;;5051374;28;20025;-61
2021/08/19 06:36:38;;;;;;;20.30;10.50;;;17.70;99.90;;;;;;5050921;28;20112;-62
2021/08/19 06:39:04;;;;;;;15.73;9.13;;;17.70;99.90;;;;;;5046008;28;20025;-62
2021/08/19 06:41:29;;;;;;;21.75;9.68;;;17.70;99.90;;;;;;5040138;28;20029;-61
2021/08/19 06:43:55;;;;;;;14.82;8.57;;;17.70;99.90;;;;;;5050370;28;20029;-62
2021/08/19 06:46:21;;;;;;;17.45;8.52;;;17.70;99.90;;;;;;5047885;28;20038;-62
2021/08/19 06:48:46;;;;;;;11.98;8.32;;;17.70;99.90;;;;;;5049931;28;20060;-62
2021/08/19 06:51:12;;;;;;;13.15;7.40;;;17.70;99.90;;;;;;5049646;28;20056;-62
2021/08/19 06:53:37;;;;;;;21.65;7.80;;;17.70;99.90;;;;;;5050582;28;20115;-61
2021/08/19 06:56:03;;;;;;;16.23;8.20;;;17.80;99.90;;;;;;5031435;28;20034;-62
2021/08/19 06:58:29;;;;;;;16.85;8.10;;;17.80;99.90;;;;;;5048379;28;20083;-63
2021/08/19 07:00:56;;;;;;;12.07;8.07;;;17.70;99.90;;;;;;5036727;28;20035;-62
2021/08/19 07:03:22;;;;;;;13.98;8.73;;;17.70;99.90;;;;;;5042013;28;20013;-62
2021/08/19 07:05:48;;;;;;;16.92;8.70;;;17.60;99.90;;;;;;5046272;28;20592;-62
2021/08/19 07:08:15;;;;;;;23.10;9.15;;;17.70;99.90;;;;;;5047764;28;20043;-63
2021/08/19 07:10:41;;;;;;;13.68;8.57;;;17.70;99.90;;;;;;5042347;28;20032;-62
2021/08/19 07:13:06;;;;;;;14.70;9.13;;;17.70;99.90;;;;;;5050357;28;20033;-62
2021/08/19 07:15:32;;;;;;;14.93;9.65;;;17.80;99.90;;;;;;5047188;28;20032;-60
2021/08/19 07:17:58;;;;;;;15.48;9.30;;;17.80;99.90;;;;;;5041974;28;20027;-62
2021/08/19 07:20:24;;;;;;;15.38;9.73;;;17.80;99.90;;;;;;5047817;28;20021;-62
2021/08/19 07:22:49;;;;;;;15.02;9.13;;;17.70;99.90;;;;;;5043468;28;20032;-61
2021/08/19 07:25:15;;;;;;;21.02;10.18;;;17.80;99.90;;;;;;5049001;28;20056;-62
2021/08/19 07:27:43;;;;;;;15.85;9.25;;;17.80;99.90;;;;;;5050010;28;20082;-61
2021/08/19 07:30:10;;;;;;;16.63;8.45;;;17.80;99.90;;;;;;5049653;28;20037;-62
2021/08/19 07:32:36;;;;;;;17.45;8.68;;;17.80;99.90;;;;;;5043249;28;20160;-62
2021/08/19 07:35:02;;;;;;;14.57;8.57;;;17.80;99.90;;;;;;5044476;28;20055;-63
2021/08/19 07:37:28;;;;;;;15.32;8.55;;;17.80;99.90;;;;;;5044885;28;20026;-63
2021/08/19 07:39:53;;;;;;;11.70;8.30;;;17.80;99.90;;;;;;5043740;28;20032;-63
2021/08/19 07:42:19;;;;;;;14.27;8.30;;;17.80;99.90;;;;;;5048735;28;20029;-62
2021/08/19 07:44:45;;;;;;;13.48;8.30;;;17.80;99.90;;;;;;5032805;28;20033;-63
2021/08/19 07:47:10;;;;;;;15.93;8.80;;;17.90;99.90;;;;;;5042977;28;20021;-62
2021/08/19 07:49:36;;;;;;;12.77;8.13;;;17.90;99.90;;;;;;5039989;28;20029;-62
2021/08/19 07:52:02;;;;;;;11.18;8.43;;;17.80;99.90;;;;;;5038141;28;20048;-62
2021/08/19 07:54:27;;;;;;;16.60;8.82;;;17.80;99.90;;;;;;5031607;28;20492;-62
2021/08/19 07:56:53;;;;;;;13.18;8.05;;;17.90;99.90;;;;;;5040833;28;20080;-62
2021/08/19 07:59:19;;;;;;;15.85;7.70;;;17.90;99.90;;;;;;5044036;28;20028;-62
2021/08/19 08:01:44;;;;;;;17.48;10.95;;;17.90;99.90;;;;;;5043134;28;20029;-62
2021/08/19 08:04:11;;;;;;;17.80;9.23;;;17.80;99.90;;;;;;5042512;28;20025;-63
2021/08/19 08:06:37;;;;;;;18.10;9.50;;;17.90;99.90;;;;;;5037687;28;20407;-62
2021/08/19 08:09:03;;;;;;;13.32;8.68;;;18.00;99.90;;;;;;5031892;28;20060;-63
2021/08/19 08:11:29;;;;;;;14.85;8.95;;;18.20;99.90;;;;;;5049177;28;20036;-63
2021/08/19 08:13:55;;;;;;;21.48;9.48;;;18.30;99.90;;;;;;5037943;28;20033;-63
2021/08/19 08:16:20;;;;;;;14.10;8.65;;;18.30;99.90;;;;;;5036992;28;20044;-62
2021/08/19 08:18:46;;;;;;;15.05;9.63;;;18.40;99.90;;;;;;5031263;28;20021;-63
2021/08/19 08:21:14;;;;;;;16.98;8.52;;;18.30;99.90;;;;;;5036178;28;20021;-62
2021/08/19 08:23:40;;;;;;;15.07;8.85;;;18.40;99.90;;;;;;5044062;28;20074;-61
2021/08/19 08:26:08;;;;;;;19.48;9.18;;;18.40;99.90;;;;;;5031895;28;20481;-63
2021/08/19 08:28:36;;;;;;;14.15;8.18;;;18.60;99.90;;;;;;5033176;28;20120;-61
2021/08/19 08:31:03;;;;;;;12.23;7.75;;;18.60;99.90;;;;;;5030712;28;20037;-60
2021/08/19 08:33:31;;;;;;;16.05;8.50;;;18.80;99.90;;;;;;5035585;28;20033;-61
2021/08/19 08:35:57;;;;;;;13.90;9.18;;;18.80;99.90;;;;;;5050916;28;20067;-61
2021/08/19 08:38:24;;;;;;;15.13;8.93;;;18.80;99.90;;;;;;5050715;28;20021;-61
2021/08/19 08:40:52;;;;;;;15.02;9.20;;;18.70;99.90;;;;;;5048580;28;20036;-63
2021/08/19 08:43:20;;;;;;;13.02;8.40;;;18.70;99.90;;;;;;5042514;28;20063;-63
2021/08/19 08:45:47;;;;;;;14.43;8.57;;;18.80;99.90;;;;;;5042505;28;20025;-63
2021/08/19 08:48:16;;;;;;;14.07;9.25;;;18.90;99.90;;;;;;5049955;28;20041;-62
2021/08/19 08:50:43;;;;;;;14.27;8.85;;;19.00;99.90;;;;;;5049303;28;20030;-63
2021/08/19 08:53:10;;;;;;;16.27;9.38;;;19.20;99.90;;;;;;5050379;28;20555;-63
2021/08/19 08:55:37;;;;;;;16.98;10.30;;;19.20;99.90;;;;;;5042424;28;20056;-63
2021/08/19 08:58:04;;;;;;;13.25;8.77;;;19.20;99.90;;;;;;5049756;28;20040;-62
2021/08/19 09:00:31;;;;;;;17.55;9.30;;;19.40;99.90;;;;;;5043018;28;20076;-59
2021/08/19 09:02:56;;;;;;;12.25;8.95;;;19.50;99.90;;;;;;5048333;28;20091;-62
2021/08/19 09:05:27;;;;;;;14.73;9.85;;;19.70;99.90;;;;;;5053073;28;20488;-61
2021/08/19 09:07:54;;;;;;;17.83;8.82;;;19.50;99.90;;;;;;5046629;28;20025;-61
2021/08/19 09:10:21;;;;;;;15.15;9.07;;;19.70;99.90;;;;;;5051275;28;20033;-60
2021/08/19 09:12:47;;;;;;;15.52;9.57;;;19.60;99.90;;;;;;5045395;28;20020;-61
2021/08/19 09:15:17;;;;;;;14.88;8.40;;;19.50;99.90;;;;;;5052175;28;20033;-60
2021/08/19 09:17:55;;;;;;;15.18;7.88;;;19.30;99.90;;;;;;5051313;28;20400;-61
2021/08/19 09:20:35;;;;;;;13.02;8.35;;;19.30;99.90;;;;;;5051893;28;20029;-62
2021/08/19 09:23:05;;;;;;;14.02;8.27;;;19.30;99.90;;;;;;5052840;28;20025;-61
2021/08/19 09:25:37;;;;;;;15.00;7.82;;;19.00;99.90;;;;;;5044528;28;20028;-60
2021/08/19 09:28:14;;;;;;;10.93;7.15;;;19.10;99.90;;;;;;5052553;28;20028;-60
2021/08/19 09:30:42;;;;;;;15.68;8.75;;;19.10;99.90;;;;;;5051474;28;20033;-61
2021/08/19 09:33:09;;;;;;;11.35;8.10;;;19.10;99.90;;;;;;5039875;28;20056;-63
2021/08/19 09:35:35;;;;;;;14.93;9.10;;;19.10;99.90;;;;;;5045457;28;20049;-62
2021/08/19 09:38:13;;;;;;;20.25;9.18;;;18.90;99.90;;;;;;5040479;28;20532;-63
2021/08/19 09:40:40;;;;;;;19.48;8.60;;;18.90;99.90;;;;;;5043222;28;20041;-63
2021/08/19 09:43:06;;;;;;;17.35;9.32;;;18.90;99.90;;;;;;5045687;28;20025;-61
2021/08/19 09:45:42;;;;;;;13.88;8.55;;;18.80;99.90;;;;;;5045561;28;20024;-61
2021/08/19 09:48:10;;;;;;;14.75;8.25;;;18.90;99.90;;;;;;5051574;28;20025;-61
2021/08/19 09:50:36;;;;;;;12.45;8.30;;;18.90;99.90;;;;;;5038708;28;20029;-62
2021/08/19 09:53:23;;;;;;;12.77;9.02;;;19.00;99.90;;;;;;5052219;28;20549;-62
2021/08/19 09:55:52;;;;;;;15.45;8.90;;;18.90;99.90;;;;;;5032292;28;20580;-61
2021/08/19 09:58:29;;;;;;;21.75;10.98;;;18.90;99.90;;;;;;5034749;28;20048;-63
2021/08/19 10:00:54;;;;;;;16.05;9.35;;;18.80;99.90;;;;;;5044576;28;20024;-62
2021/08/19 10:03:20;;;;;;;15.98;9.18;;;18.80;99.90;;;;;;5037869;28;20021;-62
2021/08/19 10:05:46;;;;;;;17.52;9.73;;;18.80;99.90;;;;;;5046237;28;20037;-62
2021/08/19 10:08:13;;;;;;;18.55;9.65;;;18.90;99.90;;;;;;5038656;28;20029;-63
2021/08/19 10:10:44;;;;;;;15.02;9.05;;;19.00;99.90;;;;;;5032576;28;20025;-61
2021/08/19 10:13:12;;;;;;;15.23;9.23;;;19.00;99.90;;;;;;5035939;28;20049;-62
2021/08/19 10:15:40;;;;;;;25.52;10.57;;;19.10;99.90;;;;;;5043616;28;20036;-61
2021/08/19 10:18:07;;;;;;;18.10;10.27;;;19.10;99.90;;;;;;5036743;28;20052;-63
2021/08/19 10:20:47;;;;;;;11.85;8.88;;;19.00;99.90;;;;;;5036718;28;20025;-63
2021/08/19 10:23:14;;;;;;;11.07;8.60;;;19.10;99.90;;;;;;5042363;28;20036;-63
2021/08/19 10:25:40;;;;;;;16.23;9.50;;;19.30;99.90;;;;;;5043949;28;20500;-61
2021/08/19 10:28:20;;;;;;;11.50;8.20;;;19.50;99.90;;;;;;5043549;28;20029;-62
2021/08/19 10:30:55;;;;;;;13.02;8.88;;;19.70;99.90;;;;;;5036026;28;20039;-60
2021/08/19 10:33:35;;;;;;;;;;;19.90;99.90;;;;;;5039898;28;20420;-63
2021/08/19 10:36:23;;;;;;;16.02;10.18;;;20.00;99.90;;;;;;5036255;28;19916;-61
2021/08/19 10:38:49;;;;;;;12.88;8.63;;;19.90;99.90;;;;;;5033038;28;20032;-64
2021/08/19 10:41:32;;;;;;;15.20;8.52;;;19.90;99.90;;;;;;5031777;28;20493;-63
2021/08/19 10:44:09;;;;;;;13.77;9.60;;;19.90;99.90;;;;;;5040674;28;20484;-62
2021/08/19 10:46:39;;;;;;;14.05;8.00;;;19.80;99.90;;;;;;5040448;28;20025;-63
2021/08/19 10:49:05;;;;;;;11.25;6.82;;;19.90;99.90;;;;;;5040797;28;20495;-63
2021/08/19 10:51:31;;;;;;;11.60;7.32;;;19.90;99.90;;;;;;5035728;28;20029;-63
2021/08/19 10:53:57;;;;;;;11.13;7.03;;;19.90;99.90;;;;;;5035789;28;20095;-63
2021/08/19 10:56:44;;;;;;;14.70;7.35;;;19.70;99.90;;;;;;5037475;28;20069;-62
2021/08/19 10:59:32;;;;;;;16.33;7.57;;;19.70;99.90;;;;;;5035261;28;20029;-62
2021/08/19 11:01:59;;;;;;;12.35;7.03;;;19.80;99.90;;;;;;5049422;28;20152;-63
2021/08/19 11:04:42;;;;;;;14.35;8.10;;;19.80;99.90;;;;;;5040547;28;20032;-61
2021/08/19 11:07:11;;;;;;;11.75;7.32;;;19.70;99.90;;;;;;5036380;28;20025;-62
2021/08/19 11:09:37;;;;;;;10.30;6.38;;;19.80;99.90;;;;;;5039639;28;20119;-63
2021/08/19 11:12:07;;;;;;;10.15;6.85;;;19.80;99.90;;;;;;5043028;28;20137;-63
2021/08/19 11:14:33;;;;;;;11.07;6.35;;;19.80;99.90;;;;;;5049555;28;20029;-62
2021/08/19 11:17:03;;;;;;;9.95;4.65;;;19.80;99.90;;;;;;5043161;28;20039;-63
2021/08/19 11:19:30;;;;;;;9.45;4.95;;;20.00;99.90;;;;;;5031483;28;20018;-62
2021/08/19 11:21:59;;;;;;;5.22;3.92;;;20.20;99.90;;;;;;5028706;28;20413;-63
2021/08/19 11:24:26;;;;;;;7.10;4.00;;;20.40;99.90;;;;;;5041917;28;20591;-63
2021/08/19 11:26:57;;;;;;;8.70;4.35;;;20.50;99.90;;;;;;5036358;28;20032;-63
2021/08/19 11:29:33;;;;;;;7.53;4.47;;;20.10;99.90;;;;;;5029530;28;20396;-63
2021/08/19 11:32:03;;;;;;;5.93;4.20;;;20.00;99.90;;;;;;5038156;28;20024;-62
2021/08/19 11:34:28;;;;;;;6.45;4.80;;;19.90;99.90;;;;;;5042013;28;20511;-62
2021/08/19 11:36:54;;;;;;;8.90;6.07;;;20.00;99.90;;;;;;5039244;28;20041;-60
2021/08/19 11:39:28;;;;;;;10.00;7.03;;;19.70;99.90;;;;;;5027688;28;20031;-64
2021/08/19 11:41:58;;;;;;;9.73;7.00;;;19.50;99.90;;;;;;5037900;28;20025;-64
2021/08/19 11:44:24;;;;;;;15.27;6.75;;;19.50;99.90;;;;;;5038699;28;20033;-63
2021/08/19 11:47:01;;;;;;;8.45;6.05;;;19.30;99.90;;;;;;5036341;28;20092;-62
2021/08/19 11:49:26;;;;;;;7.35;4.55;;;19.30;99.90;;;;;;5029438;28;20034;-63
2021/08/19 11:52:02;;;;;;;5.35;4.28;;;19.20;99.90;;;;;;5032714;28;20540;-61
2021/08/19 11:54:38;;;;;;;8.32;4.97;;;19.20;99.90;;;;;;5041625;28;20029;-63
2021/08/19 11:57:03;;;;;;;8.23;4.35;;;19.30;99.90;;;;;;5033694;28;20037;-63
2021/08/19 11:59:29;;;;;;;7.68;5.68;;;19.40;99.90;;;;;;5038031;28;20467;-64
2021/08/19 12:01:55;;;;;;;8.15;4.97;;;19.40;99.90;;;;;;5031284;28;20793;-64
2021/08/19 12:04:28;;;;;;;6.43;4.53;;;19.50;99.90;;;;;;5035155;28;20045;-62
2021/08/19 12:06:58;;;;;;;7.07;4.70;;;19.60;99.90;;;;;;5044932;28;20591;-64
2021/08/19 12:09:24;;;;;;;10.65;4.05;;;20.00;99.90;;;;;;5051294;28;20033;-64
2021/08/19 12:11:51;;;;;;;7.20;3.67;;;20.40;99.90;;;;;;5057094;28;20036;-64
2021/08/19 12:14:24;;;;;;;5.10;2.90;;;20.70;99.90;;;;;;5054553;28;20025;-64
2021/08/19 12:16:51;;;;;;;8.77;3.95;;;20.60;99.90;;;;;;5047946;28;20036;-63
2021/08/19 12:19:21;;;;;;;10.63;3.35;;;20.60;99.90;;;;;;5055719;28;20025;-64
2021/08/19 12:21:53;;;;;;;7.40;3.92;;;21.00;99.90;;;;;;5056151;28;20033;-64
2021/08/19 12:24:28;;;;;;;10.18;3.90;;;21.20;99.90;;;;;;5057239;28;20049;-64
2021/08/19 12:27:04;;;;;;;6.80;3.70;;;21.20;99.90;;;;;;5044321;28;20048;-63
2021/08/19 12:29:32;;;;;;;6.47;3.78;;;21.10;99.90;;;;;;5036602;28;20492;-63
2021/08/19 12:32:00;;;;;;;10.00;5.05;;;21.10;99.90;;;;;;5039961;28;20048;-62
2021/08/19 12:34:26;;;;;;;10.80;5.03;;;21.20;99.90;;;;;;5048179;28;20033;-62
2021/08/19 12:36:52;;;;;;;13.00;4.75;;;20.90;99.90;;;;;;5037432;28;20464;-63